• Join FlightAware (Why Join?)
  • Login
  • US Flag 
09:05AM EDT


 

Airport Tracker/Info


-or-


 

Live Flight TrackerFlight Track Log ✈ AMF405 ✈ 18-Jun-2013 ✈ KPDX - KBFI

Flight Track Log - Related Links

Times and Time Zones

All times are in EDT time to prevent confusion due to time zone crossing. See the AMF405 flight status page for this flight to view local times or setup timezone preferences in your user account.

Time Position Orientation Groundspeed Altitude Reporting Facility
EDT Latitude Longitude Course Direction KTS MPH feet Rate Location/Type
07:33AM 45.5953 -122.6250 145° Southeast 98 113 600  Level Seattle Center
07:34AM 45.5856 -122.6631 250° West 114 131 2,000 1,140 Climbing Seattle Center
07:35AM 45.5614 -122.6944 222° Southwest 123 142 3,100 1,020 Climbing Seattle Center
07:36AM 45.5333 -122.6628 142° Southeast 142 163 4,100 1,020 Climbing Seattle Center
07:37AM 45.5042 -122.6253 138° Southeast 147 169 5,200 1,140 Climbing Seattle Center
07:39AM 45.4871 -122.2360 145° Southeast  Level Estimated
07:39AM 45.4758 -122.5814 133° Southeast 140 161 6,500  Level Seattle Center
07:40AM 45.4517 -122.5431 132° Southeast 137 158 7,600 960 Climbing Seattle Center
07:41AM 45.4236 -122.5092 140° Southeast 133 153 8,600 960 Climbing Seattle Center
07:42AM 45.3928 -122.4722 140° Southeast 141 162 9,600 960 Climbing Seattle Center
07:43AM 45.3606 -122.4342 140° Southeast 149 171 10,600 960 Climbing Seattle Center
07:44AM 45.3306 -122.3947 137° Southeast 147 169 11,600 1,020 Climbing Seattle Center
07:45AM 45.3044 -122.3525 131° Southeast 144 166 12,700 720 Climbing Seattle Center
07:46AM 45.2756 -122.3131 136° Southeast 143 165 13,100 180 Climbing Seattle Center
07:47AM 45.2403 -122.2647 136° Southeast 163 188 13,100  Level Seattle Center
07:48AM 45.2092 -122.2164 132° Southeast 167 192 13,100  Level Seattle Center
07:49AM 45.1972 -122.1511 105° East 173 199 13,100  Level Seattle Center
07:50AM 45.1775 -122.0897 114° Southeast 172 198 13,100  Level Seattle Center
07:51AM 45.1583 -122.0286 114° Southeast 171 197 13,100  Level Seattle Center
07:52AM 45.1381 -121.9672 115° Southeast 172 198 13,100 -60 Level Seattle Center
07:53AM 45.1244 -121.9025 107° East 178 205 13,000 -60 Descending Seattle Center
07:54AM 45.1089 -121.8344 108° East 179 206 13,000  Level Seattle Center
07:55AM 45.0961 -121.7683 105° East 177 204 13,000  Level Seattle Center
07:56AM 45.0811 -121.7000 107° East 181 208 13,000  Level Seattle Center
07:57AM 45.0697 -121.6331 104° East 178 205 13,000  Level Seattle Center
07:58AM 45.0586 -121.5656 103° East 178 205 13,000  Level Seattle Center
07:59AM 45.0469 -121.4975 104° East 178 205 13,000  Level Seattle Center
08:00AM 45.0394 -121.4297 99° East 177 204 13,000  Level Seattle Center
08:01AM 45.0208 -121.3694 114° Southeast 171 197 13,000  Level Seattle Center
08:02AM 45.0067 -121.3025 107° East 176 203 13,000  Level Seattle Center
08:03AM 44.9922 -121.2383 108° East 174 200 13,000  Level Seattle Center
08:04AM 44.9775 -121.1744 108° East 172 198 13,000  Level Seattle Center
08:05AM 44.9653 -121.1097 105° East 172 198 13,000  Level Seattle Center
08:06AM 44.9506 -121.0464 108° East 171 197 13,000  Level Seattle Center
08:07AM 44.9361 -120.9822 108° East 173 199 13,000  Level Seattle Center
08:08AM 44.9214 -120.9167 108° East 176 203 13,000  Level Seattle Center
08:09AM 44.9067 -120.8506 107° East 177 204 13,000  Level Seattle Center
08:10AM 44.8925 -120.7836 107° East 178 205 13,000  Level Seattle Center
08:11AM 44.8778 -120.7192 108° East 175 201 13,000  Level Seattle Center
08:12AM 44.8631 -120.6533 107° East 177 204 13,000  Level Seattle Center
08:13AM 44.8483 -120.5886 108° East 175 201 13,000  Level Seattle Center
08:14AM 44.8322 -120.5117 106° East 172 198 13,000  Level Seattle Center
08:15AM 44.8178 -120.4506 108° East 168 193 13,000  Level Seattle Center
08:16AM 44.8036 -120.3889 108° East 166 191 13,000  Level Seattle Center
08:17AM 44.7897 -120.3258 107° East 168 193 13,000  Level Seattle Center
08:18AM 44.7744 -120.2597 108° East 175 201 13,000  Level Seattle Center
08:19AM 44.7600 -120.1914 107° East 181 208 13,000  Level Seattle Center
08:20AM 44.7439 -120.1247 109° East 182 209 13,000  Level Seattle Center
08:21AM 44.7294 -120.0567 107° East 183 211 13,000  Level Seattle Center
08:22AM 44.7142 -119.9903 108° East 182 209 13,000  Level Seattle Center
08:23AM 44.6981 -119.9228 109° East 182 209 13,000  Level Seattle Center
08:24AM 44.6822 -119.8550 108° East 183 211 13,000  Level Seattle Center
08:25AM 44.6672 -119.7856 107° East 185 213 13,000  Level Seattle Center
08:26AM 44.6511 -119.7167 108° East 187 215 13,000  Level Seattle Center
08:27AM 44.6325 -119.6489 111° Southeast 185 213 13,000  Level Seattle Center
08:28AM 44.6119 -119.5833 114° Southeast 184 212 13,000  Level Seattle Center
08:29AM 44.5936 -119.5172 111° Southeast 183 211 13,000  Level Seattle Center
08:30AM 44.5733 -119.4497 113° Southeast 187 215 13,000  Level Seattle Center
08:31AM 44.5539 -119.3828 112° Southeast 186 214 13,000  Level Seattle Center
08:32AM 44.5339 -119.3147 112° Southeast 189 217 13,000  Level Seattle Center
08:33AM 44.5136 -119.2456 112° Southeast 192 221 13,000  Level Seattle Center
08:34AM 44.4939 -119.1775 112° Southeast 189 217 13,000  Level Seattle Center
08:35AM 44.4728 -119.1103 114° Southeast 189 217 13,000  Level Seattle Center
08:36AM 44.4528 -119.0417 112° Southeast 190 219 13,000  Level Seattle Center
08:37AM 44.4325 -118.9750 113° Southeast 188 216 13,000  Level Seattle Center
08:38AM 44.4139 -118.9072 111° Southeast 187 215 13,000  Level Seattle Center
08:39AM 44.3914 -118.8403 115° Southeast 189 217 13,000  Level Seattle Center
08:40AM 44.3733 -118.7719 110° East 188 216 13,000  Level Salt Lake Center
08:41AM 44.3519 -118.7047 114° Southeast 189 217 13,000  Level Salt Lake Center
08:42AM 44.3314 -118.6372 113° Southeast 190 219 13,000  Level Salt Lake Center
08:43AM 44.3081 -118.5564 112° Southeast 188 216 13,000  Level Seattle Center
08:44AM 44.2869 -118.4889 114° Southeast 190 219 13,000  Level Seattle Center
08:45AM 44.2664 -118.4208 113° Southeast 191 220 13,000  Level Seattle Center
08:46AM 44.2436 -118.3525 115° Southeast 193 222 13,000  Level Seattle Center
08:47AM 44.2233 -118.2833 112° Southeast 194 223 13,000  Level Seattle Center
08:48AM 44.2025 -118.2167 114° Southeast 190 219 13,000 -60 Level Seattle Center
08:49AM 44.1822 -118.1475 112° Southeast 185 213 12,900 -60 Descending Seattle Center
08:50AM 44.1622 -118.0844 114° Southeast 185 213 12,900  Level Seattle Center
08:51AM 44.1431 -118.0228 113° Southeast 183 211 12,900  Level Seattle Center
08:52AM 44.1231 -117.9589 114° Southeast 187 215 13,000 60 Climbing Salt Lake Center